Terminal Aerodrome Forecast
Issued by NWS

Current Version | Previous Version | Text Only | Print | Product List | Glossary On
Versions: 1 2 3 4 5 6 7 8 9 10 11 12 13 14 15 16 17
548
FTPA31 PHFO 260537
TAFHJR
TAF
PHJR 260537Z 2606/2706 VRB03KT P6SM FEW030 SCT045
     FM262000 12010KT P6SM FEW030 SCT045
     FM270400 06005KT P6SM FEW045=

USA.gov is the U.S. government's official web portal to all federal, state and local government web resources and services.